Time;durP1;ratioP1;P1;durP2;ratioP2;P2;SDS_P1;SDS_P2;PMS_P1;PMS_P2;Temp;Humidity;BMP_temperature;BMP_pressure;BME280_temperature;BME280_humidity;BME280_pressure;Samples;Min_cycle;Max_cycle;Signal;HPM_P1;HPM_P2
2023/07/19 00:00:15;;;;;;;11.35;4.70;;;;;;;18.64;100.00;98561.47;5058170;28;20110;-75
2023/07/19 00:02:40;;;;;;;9.35;4.72;;;;;;;18.90;100.00;98578.97;5060045;28;20029;-75
2023/07/19 00:05:07;;;;;;;6.38;4.20;;;;;;;18.85;100.00;98554.28;5042638;28;20070;-75
2023/07/19 00:07:32;;;;;;;11.20;5.07;;;;;;;18.76;100.00;98529.28;5048747;28;20029;-75
2023/07/19 00:09:58;;;;;;;10.27;4.80;;;;;;;18.69;100.00;98545.06;5046623;28;20096;-76
2023/07/19 00:12:23;;;;;;;7.65;4.68;;;;;;;18.58;100.00;98555.13;5046397;28;20021;-75
2023/07/19 00:14:48;;;;;;;8.45;4.88;;;;;;;18.57;100.00;98561.69;5087218;22;20044;-71
2023/07/19 00:17:14;;;;;;;11.25;5.20;;;;;;;18.66;100.00;98555.75;5054445;28;20501;-74
2023/07/19 00:19:39;;;;;;;10.70;4.75;;;;;;;18.61;100.00;98565.56;5058530;28;20032;-74
2023/07/19 00:22:05;;;;;;;7.70;4.45;;;;;;;18.60;100.00;98563.06;5057955;28;20025;-77
2023/07/19 00:24:30;;;;;;;6.38;4.60;;;;;;;18.53;100.00;98560.56;5037347;28;20059;-74
2023/07/19 00:26:56;;;;;;;9.65;5.03;;;;;;;18.48;100.00;98548.75;5031227;28;20052;-74
2023/07/19 00:29:22;;;;;;;9.13;5.03;;;;;;;18.47;100.00;98541.59;5039815;28;20064;-75
2023/07/19 00:31:47;;;;;;;7.93;4.97;;;;;;;18.48;100.00;98544.09;5027996;28;20017;-75
2023/07/19 00:34:12;;;;;;;9.63;4.70;;;;;;;18.43;100.00;98560.47;5042618;28;20030;-75
2023/07/19 00:36:38;;;;;;;6.85;4.72;;;;;;;18.53;100.00;98557.00;5056233;28;20025;-75
2023/07/19 00:39:03;;;;;;;10.18;5.00;;;;;;;18.44;100.00;98556.66;5048190;28;20052;-73
2023/07/19 00:41:28;;;;;;;11.73;4.97;;;;;;;18.28;100.00;98542.00;5062927;28;20021;-75
2023/07/19 00:43:53;;;;;;;10.43;5.45;;;;;;;18.27;100.00;98540.34;5060070;28;20016;-74
2023/07/19 00:46:20;;;;;;;13.15;5.13;;;;;;;18.33;100.00;98546.69;5053717;28;20032;-75
2023/07/19 00:48:45;;;;;;;9.95;5.07;;;;;;;18.28;100.00;98550.19;5087347;28;20020;-75
2023/07/19 00:51:11;;;;;;;11.35;5.22;;;;;;;18.25;100.00;98545.25;5057901;28;20017;-71
2023/07/19 00:53:38;;;;;;;10.25;5.47;;;;;;;18.23;100.00;98530.16;5064288;28;20092;-74
2023/07/19 00:56:04;;;;;;;9.18;4.72;;;;;;;18.21;100.00;98524.97;5067434;28;20036;-71
2023/07/19 00:58:31;;;;;;;9.25;4.78;;;;;;;18.29;100.00;98537.34;5068390;28;20033;-74
2023/07/19 01:00:57;;;;;;;6.95;4.65;;;;;;;18.26;100.00;98540.59;5049489;28;20112;-73
2023/07/19 01:03:22;;;;;;;6.32;4.35;;;;;;;18.28;100.00;98546.66;5050100;28;20453;-73
2023/07/19 01:05:48;;;;;;;7.10;4.47;;;;;;;18.18;100.00;98533.69;5053119;28;20021;-74
2023/07/19 01:08:14;;;;;;;11.30;4.60;;;;;;;18.22;100.00;98534.00;5078295;28;20017;-76
2023/07/19 01:10:39;;;;;;;10.70;4.25;;;;;;;18.18;100.00;98519.97;5030953;28;20033;-73
2023/07/19 01:13:09;;;;;;;10.48;4.68;;;;;;;18.21;100.00;98537.81;5042316;28;20036;-74
2023/07/19 01:15:36;;;;;;;8.98;4.45;;;;;;;18.20;100.00;98536.16;5047078;28;20546;-73
2023/07/19 01:18:01;;;;;;;10.15;4.38;;;;;;;18.15;100.00;98537.75;5025924;28;20086;-73
2023/07/19 01:20:27;;;;;;;11.63;4.60;;;;;;;18.00;100.00;98526.69;5052235;28;20013;-71
2023/07/19 01:22:53;;;;;;;7.28;4.60;;;;;;;17.96;100.00;98548.25;5071369;28;20029;-73
2023/07/19 01:25:19;;;;;;;8.05;4.30;;;;;;;17.98;100.00;98552.66;5044597;28;20029;-73
2023/07/19 01:27:44;;;;;;;7.95;4.28;;;;;;;17.99;100.00;98551.56;5045340;28;20124;-75
2023/07/19 01:30:10;;;;;;;7.95;4.32;;;;;;;18.00;100.00;98548.56;5042336;28;20052;-73
2023/07/19 01:32:35;;;;;;;8.13;4.55;;;;;;;17.91;100.00;98545.47;5030905;28;20048;-73
2023/07/19 01:35:00;;;;;;;11.77;4.72;;;;;;;17.81;100.00;98545.34;5051961;28;20048;-73
2023/07/19 01:37:29;;;;;;;11.63;4.60;;;;;;;17.71;100.00;98539.72;5033005;28;20029;-73
2023/07/19 01:39:54;;;;;;;8.87;4.33;;;;;;;17.73;100.00;98559.44;5029662;28;20067;-73
2023/07/19 01:42:20;;;;;;;10.70;4.85;;;;;;;17.52;100.00;98544.72;5029817;28;20371;-73
2023/07/19 01:44:45;;;;;;;9.07;4.72;;;;;;;17.49;100.00;98556.16;5049921;28;20104;-72
2023/07/19 01:47:10;;;;;;;9.55;5.00;;;;;;;17.53;100.00;98560.06;5050246;28;20163;-75
2023/07/19 01:49:39;;;;;;;11.25;4.43;;;;;;;17.44;100.00;98567.84;5040020;28;20486;-74
2023/07/19 01:52:04;;;;;;;9.32;4.55;;;;;;;17.31;100.00;98562.75;5041867;28;20028;-73
2023/07/19 01:54:29;;;;;;;7.82;4.63;;;;;;;17.22;100.00;98564.28;5045208;28;20032;-74
2023/07/19 01:56:55;;;;;;;7.35;4.50;;;;;;;17.20;100.00;98577.38;5047444;28;20486;-74
2023/07/19 01:59:20;;;;;;;9.80;4.85;;;;;;;17.18;100.00;98565.88;5048929;28;20029;-74
2023/07/19 02:01:45;;;;;;;8.00;4.85;;;;;;;17.14;100.00;98568.28;5049004;28;20035;-72
2023/07/19 02:04:11;;;;;;;8.93;5.53;;;;;;;17.07;100.00;98568.44;5044203;28;20025;-72
2023/07/19 02:06:36;;;;;;;7.35;4.80;;;;;;;17.01;100.00;98568.63;5047477;28;20025;-74
2023/07/19 02:09:01;;;;;;;12.23;5.43;;;;;;;17.03;100.00;98580.16;5048186;28;20021;-74
2023/07/19 02:11:26;;;;;;;10.05;5.30;;;;;;;16.95;100.00;98577.81;5036751;28;20025;-75
2023/07/19 02:13:52;;;;;;;9.27;4.90;;;;;;;16.90;100.00;98577.75;5053592;28;20111;-73
2023/07/19 02:16:17;;;;;;;10.23;4.90;;;;;;;16.81;100.00;98580.06;5051989;28;20425;-73
2023/07/19 02:18:42;;;;;;;11.00;5.65;;;;;;;16.79;100.00;98594.00;5035599;28;20029;-72
2023/07/19 02:21:07;;;;;;;10.80;5.18;;;;;;;16.74;100.00;98588.44;5040956;28;20486;-73
2023/07/19 02:23:33;;;;;;;12.52;4.95;;;;;;;16.64;100.00;98585.53;5027452;28;20025;-74
2023/07/19 02:25:59;;;;;;;8.25;5.28;;;;;;;16.65;100.00;98588.00;5060905;28;20032;-73
2023/07/19 02:28:24;;;;;;;11.52;5.25;;;;;;;16.73;100.00;98594.94;5040825;28;20023;-73
2023/07/19 02:30:49;;;;;;;9.07;5.35;;;;;;;16.68;100.00;98592.13;5041980;28;20117;-73
2023/07/19 02:33:15;;;;;;;10.75;4.95;;;;;;;16.62;100.00;98590.41;5047923;28;20028;-73
2023/07/19 02:35:41;;;;;;;9.00;5.00;;;;;;;16.58;100.00;98581.03;5054439;28;20134;-74
2023/07/19 02:38:06;;;;;;;9.32;5.00;;;;;;;16.59;100.00;98588.19;5042313;28;20479;-74
2023/07/19 02:40:32;;;;;;;8.60;4.97;;;;;;;16.52;100.00;98582.03;5031436;28;20021;-74
2023/07/19 02:42:57;;;;;;;9.20;4.93;;;;;;;16.53;100.00;98589.13;5047698;28;20033;-73
2023/07/19 02:45:24;;;;;;;7.28;4.82;;;;;;;16.41;100.00;98581.84;5047043;28;20034;-75
2023/07/19 02:47:50;;;;;;;15.00;5.22;;;;;;;16.44;100.00;98591.47;5045716;28;20017;-74
2023/07/19 02:50:18;;;;;;;6.78;4.70;;;;;;;16.40;100.00;98591.13;5027028;28;20063;-74
2023/07/19 02:52:43;;;;;;;9.32;5.70;;;;;;;16.38;100.00;98597.91;5035764;28;20034;-74
2023/07/19 02:55:08;;;;;;;9.10;5.43;;;;;;;16.49;100.00;98609.84;5034305;28;20398;-74
2023/07/19 02:57:33;;;;;;;12.30;4.65;;;;;;;16.37;100.00;98604.44;5042017;28;20024;-72
2023/07/19 02:59:59;;;;;;;11.52;5.57;;;;;;;16.29;100.00;98605.66;5036632;28;20053;-74
2023/07/19 03:02:24;;;;;;;9.50;5.88;;;;;;;16.25;100.00;98607.25;5040261;28;20082;-74
2023/07/19 03:04:49;;;;;;;13.80;5.72;;;;;;;16.19;100.00;98616.38;5045535;28;20033;-73
2023/07/19 03:07:15;;;;;;;16.52;5.72;;;;;;;16.19;100.00;98624.56;5044089;28;20394;-78
2023/07/19 03:09:45;;;;;;;11.35;5.13;;;;;;;16.19;100.00;98616.38;5054035;28;20056;-78
2023/07/19 03:12:12;;;;;;;9.57;5.20;;;;;;;16.15;100.00;98626.16;5038479;28;20021;-79
2023/07/19 03:14:38;;;;;;;11.45;5.68;;;;;;;15.92;100.00;98589.69;5052157;28;20021;-79
2023/07/19 03:17:03;;;;;;;12.50;5.40;;;;;;;16.13;100.00;98622.84;5030505;28;20116;-78
2023/07/19 03:19:29;;;;;;;12.52;6.20;;;;;;;16.15;100.00;98620.69;5039272;28;20031;-78
2023/07/19 03:22:37;;;;;;;9.63;5.57;;;;;;;16.28;100.00;98630.50;5065939;28;20068;-77
2023/07/19 03:25:23;;;;;;;9.25;5.05;;;;;;;16.35;100.00;98642.91;5044753;28;20112;-78
2023/07/19 03:27:49;;;;;;;8.77;5.20;;;;;;;16.31;100.00;98639.00;5034438;28;20017;-76
2023/07/19 03:30:15;;;;;;;11.20;4.80;;;;;;;16.27;100.00;98632.41;5043979;28;20148;-76
2023/07/19 03:32:40;;;;;;;11.88;5.43;;;;;;;16.34;100.00;98645.88;5040950;28;20060;-75
2023/07/19 03:35:06;;;;;;;14.15;5.53;;;;;;;16.32;100.00;98637.97;5046978;28;20083;-78
2023/07/19 03:37:34;;;;;;;11.80;5.90;;;;;;;16.28;100.00;98631.31;5041567;28;20454;-75
2023/07/19 03:40:00;;;;;;;8.60;5.53;;;;;;;16.36;100.00;98633.66;5035056;28;20040;-76
2023/07/19 03:42:25;;;;;;;11.52;6.28;;;;;;;16.37;100.00;98632.59;5034060;28;20025;-78
2023/07/19 03:45:00;;;;;;;15.32;6.53;;;;;;;16.34;100.00;98634.97;5065708;28;20108;-79
2023/07/19 03:47:25;;;;;;;10.48;5.80;;;;;;;16.26;100.00;98628.00;5043770;28;20056;-78
2023/07/19 03:49:51;;;;;;;12.02;6.13;;;;;;;16.43;100.00;98647.97;5027536;28;20048;-76
2023/07/19 03:52:16;;;;;;;9.38;6.10;;;;;;;16.40;100.00;98653.94;5043428;28;20114;-77
2023/07/19 03:54:41;;;;;;;9.60;5.63;;;;;;;16.38;100.00;98653.34;5052562;28;20485;-77
2023/07/19 03:57:07;;;;;;;11.05;5.70;;;;;;;16.45;100.00;98661.38;5029888;28;20022;-73
2023/07/19 03:59:33;;;;;;;11.98;6.32;;;;;;;16.41;100.00;98661.03;5037448;28;20044;-79
2023/07/19 04:01:58;;;;;;;9.38;5.60;;;;;;;16.37;100.00;98640.78;5045171;28;20102;-76
2023/07/19 04:04:24;;;;;;;11.02;6.03;;;;;;;16.39;100.00;98644.06;5046859;28;20057;-73
2023/07/19 04:06:49;;;;;;;13.27;6.30;;;;;;;16.38;100.00;98634.22;5022109;28;20033;-76
2023/07/19 04:09:15;;;;;;;12.55;5.60;;;;;;;16.32;100.00;98627.03;5024776;28;20048;-75
2023/07/19 04:11:40;;;;;;;11.93;5.55;;;;;;;16.43;100.00;98647.97;5058281;28;20159;-76
2023/07/19 04:14:06;;;;;;;9.63;5.50;;;;;;;16.42;100.00;98643.56;5041870;28;20036;-77
2023/07/19 04:16:31;;;;;;;14.05;6.00;;;;;;;16.49;100.00;98643.44;5034725;28;20029;-76
2023/07/19 04:18:57;;;;;;;11.45;5.97;;;;;;;16.49;100.00;98624.31;5045779;28;20052;-76
2023/07/19 04:21:22;;;;;;;14.60;6.40;;;;;;;16.63;100.00;98635.75;5035693;28;20104;-76
2023/07/19 04:23:48;;;;;;;13.48;5.30;;;;;;;16.64;100.00;98621.84;5044681;28;20020;-77
2023/07/19 04:26:13;;;;;;;10.50;5.10;;;;;;;16.64;100.00;98621.03;5033896;28;20031;-79
2023/07/19 04:28:38;;;;;;;10.65;5.50;;;;;;;16.64;100.00;98632.78;5053415;28;20033;-78
2023/07/19 04:31:03;;;;;;;9.70;4.95;;;;;;;16.67;100.00;98636.09;5031291;28;20116;-79
2023/07/19 04:33:30;;;;;;;9.40;5.03;;;;;;;16.65;100.00;98634.44;5050534;28;20029;-77
2023/07/19 04:35:55;;;;;;;8.82;5.22;;;;;;;16.65;100.00;98630.88;5060120;28;20052;-80
2023/07/19 04:38:21;;;;;;;8.18;5.10;;;;;;;16.60;100.00;98617.13;5036723;28;20584;-77
2023/07/19 04:40:46;;;;;;;14.68;5.63;;;;;;;16.76;100.00;98638.16;5028251;28;20421;-78
2023/07/19 04:43:11;;;;;;;14.70;5.75;;;;;;;16.81;100.00;98632.00;5052884;28;20124;-77
2023/07/19 04:45:37;;;;;;;12.95;6.13;;;;;;;16.79;100.00;98604.09;5048050;28;20043;-75
2023/07/19 04:48:04;;;;;;;8.40;5.07;;;;;;;17.03;100.00;98629.34;5038553;28;20101;-74
2023/07/19 04:50:29;;;;;;;13.30;5.40;;;;;;;17.18;100.00;98617.81;5049754;28;20056;-74
2023/07/19 04:52:54;;;;;;;11.38;5.50;;;;;;;17.16;100.00;98601.66;5059781;28;20048;-80
2023/07/19 04:55:21;;;;;;;7.18;5.20;;;;;;;17.13;100.00;98604.88;5039438;28;20022;-80
2023/07/19 04:57:47;;;;;;;10.43;5.28;;;;;;;17.21;100.00;98601.75;5053176;28;20029;-79
2023/07/19 05:00:14;;;;;;;10.13;5.50;;;;;;;17.25;100.00;98602.88;5038639;28;20067;-80
2023/07/19 05:02:42;;;;;;;8.90;5.70;;;;;;;17.37;100.00;98601.94;5017622;28;20037;-78
2023/07/19 05:05:09;;;;;;;14.27;6.30;;;;;;;17.38;100.00;98595.41;5020105;28;20033;-78
2023/07/19 05:07:35;;;;;;;13.93;5.82;;;;;;;17.52;100.00;98599.41;5046953;28;20041;-78
2023/07/19 05:10:02;;;;;;;11.27;5.55;;;;;;;17.43;100.00;98577.16;5047254;28;20111;-77
2023/07/19 05:12:28;;;;;;;11.95;5.82;;;;;;;17.56;100.00;98589.63;5034662;28;20372;-76
2023/07/19 05:14:53;;;;;;;10.10;5.63;;;;;;;17.68;100.00;98571.19;5046538;28;20028;-78
2023/07/19 05:17:19;;;;;;;16.85;5.82;;;;;;;17.95;100.00;98575.91;5044673;28;20029;-75
2023/07/19 05:19:44;;;;;;;7.93;5.40;;;;;;;18.01;100.00;98565.81;5046453;28;20025;-75
2023/07/19 05:22:11;;;;;;;7.93;5.45;;;;;;;18.28;100.00;98552.13;5063823;28;20056;-75
2023/07/19 05:24:37;;;;;;;9.05;5.80;;;;;;;18.53;100.00;98560.56;5036065;28;20192;-80
2023/07/19 05:27:03;;;;;;;14.50;5.60;;;;;;;18.75;100.00;98545.97;5058475;28;20038;-79
2023/07/19 05:29:28;;;;;;;13.15;5.38;;;;;;;18.98;100.00;98542.84;5050520;28;20067;-77
2023/07/19 05:31:54;;;;;;;10.32;5.30;;;;;;;19.17;100.00;98547.88;5039657;28;20029;-77
2023/07/19 05:34:19;;;;;;;9.48;5.00;;;;;;;19.37;100.00;98545.25;5037427;28;20517;-79
2023/07/19 05:36:45;;;;;;;16.13;5.30;;;;;;;19.66;100.00;98539.34;5033323;28;20068;-79
2023/07/19 05:39:10;;;;;;;9.30;4.78;;;;;;;19.70;100.00;98538.56;5051864;28;20033;-80
2023/07/19 05:41:36;;;;;;;8.43;5.32;;;;;;;19.83;100.00;98537.25;5076777;28;20024;-78
2023/07/19 05:44:01;;;;;;;12.18;5.28;;;;;;;19.92;100.00;98540.28;5039784;28;20129;-79
2023/07/19 05:46:26;;;;;;;12.05;5.43;;;;;;;20.06;100.00;98524.09;5039311;28;20040;-77
2023/07/19 05:48:52;;;;;;;8.80;5.22;;;;;;;20.38;100.00;98523.03;5048572;28;20028;-78
2023/07/19 05:51:19;;;;;;;10.57;5.32;;;;;;;20.33;100.00;98543.06;5057719;28;20405;-79
2023/07/19 05:53:44;;;;;;;13.20;5.40;;;;;;;20.32;100.00;98539.50;5028688;28;20028;-74
2023/07/19 05:56:09;;;;;;;9.23;4.57;;;;;;;20.74;100.00;98548.63;5051971;28;20033;-74
2023/07/19 05:58:35;;;;;;;9.10;5.25;;;;;;;20.88;100.00;98546.13;5042367;28;20022;-74
2023/07/19 06:01:00;;;;;;;11.52;5.00;;;;;;;20.87;100.00;98539.81;5022855;28;20029;-74
2023/07/19 06:03:25;;;;;;;11.07;5.55;;;;;;;21.10;100.00;98543.88;5035227;28;20127;-74
2023/07/19 06:05:51;;;;;;;14.45;4.85;;;;;;;21.35;100.00;98547.66;5049559;28;20017;-74
2023/07/19 06:08:16;;;;;;;12.20;4.28;;;;;;;21.75;100.00;98543.16;5060201;28;20025;-74
2023/07/19 06:10:41;;;;;;;8.57;4.35;;;;;;;22.00;100.00;98554.00;5031035;28;20060;-74
2023/07/19 06:13:07;;;;;;;11.18;5.22;;;;;;;22.11;100.00;98543.75;5050458;28;20021;-74
2023/07/19 06:15:33;;;;;;;14.63;5.03;;;;;;;22.13;100.00;98541.53;5079313;22;20067;-47
2023/07/19 06:18:00;;;;;;;8.90;4.18;;;;;;;22.15;100.00;98536.56;5058379;28;20554;-46
2023/07/19 06:20:26;;;;;;;8.02;4.57;;;;;;;22.28;100.00;98547.00;5059236;28;20407;-47
2023/07/19 06:22:51;;;;;;;7.80;4.95;;;;;;;22.50;100.00;98538.25;5046073;28;20025;-47
2023/07/19 06:25:17;;;;;;;9.00;4.45;;;;;;;22.64;100.00;98543.16;5039300;28;20451;-46
2023/07/19 06:27:42;;;;;;;9.20;4.43;;;;;;;22.74;100.00;98538.34;5045164;28;20021;-46
2023/07/19 06:30:09;;;;;;;9.13;4.32;;;;;;;22.79;100.00;98542.97;5045930;28;20027;-46
2023/07/19 06:32:36;;;;;;;9.43;4.50;;;;;;;22.91;100.00;98537.09;5050909;28;20490;-47
2023/07/19 06:35:02;;;;;;;9.18;3.78;;;;;;;22.96;100.00;98546.16;5067681;28;20482;-47
2023/07/19 06:37:28;;;;;;;5.03;3.60;;;;;;;23.27;100.00;98537.59;5048238;28;20351;-47
2023/07/19 06:39:53;;;;;;;7.10;3.45;;;;;;;23.79;100.00;98540.59;5065233;28;20085;-47
2023/07/19 06:42:18;;;;;;;8.38;3.65;;;;;;;24.33;100.00;98530.13;5051821;28;20078;-46
2023/07/19 06:44:44;;;;;;;6.05;3.85;;;;;;;25.19;100.00;98540.88;5058951;28;20066;-46
2023/07/19 06:47:09;;;;;;;5.57;3.95;;;;;;;26.59;100.00;98543.97;5067773;28;20056;-46
2023/07/19 06:49:35;;;;;;;10.90;4.05;;;;;;;29.16;100.00;98536.13;5054209;28;20020;-46
2023/07/19 06:52:01;;;;;;;8.95;3.60;;;;;;;30.89;93.45;98540.94;5043370;28;20369;-47
2023/07/19 06:54:26;;;;;;;11.07;3.80;;;;;;;32.02;78.21;98540.41;5052495;28;20027;-49
2023/07/19 06:56:51;;;;;;;8.35;3.22;;;;;;;33.72;66.26;98541.97;5060990;28;20437;-47
2023/07/19 06:59:17;;;;;;;8.27;3.83;;;;;;;34.42;61.71;98546.75;5051402;28;20017;-47
2023/07/19 07:01:43;;;;;;;8.82;2.90;;;;;;;36.69;53.73;98535.38;5049452;28;20033;-47
2023/07/19 07:04:08;;;;;;;4.63;3.00;;;;;;;37.58;49.54;98541.16;5047805;28;20116;-47
2023/07/19 07:06:34;;;;;;;13.65;3.40;;;;;;;38.08;47.22;98541.56;5046118;28;20112;-47
2023/07/19 07:09:00;;;;;;;10.68;3.15;;;;;;;38.82;45.39;98550.81;5050319;28;20033;-52
2023/07/19 07:11:25;;;;;;;7.18;2.63;;;;;;;39.64;43.21;98547.34;5046384;28;20020;-48
2023/07/19 07:13:50;;;;;;;5.72;2.78;;;;;;;40.40;41.06;98536.72;5039497;28;21766;-48
2023/07/19 07:16:16;;;;;;;5.15;2.65;;;;;;;40.71;40.14;98538.66;5042331;28;20379;-48
2023/07/19 07:18:41;;;;;;;5.47;2.55;;;;;;;41.62;38.86;98536.88;5048267;28;20025;-48
2023/07/19 07:21:07;;;;;;;9.73;3.33;;;;;;;40.68;39.33;98533.00;5055167;28;20037;-48
2023/07/19 07:23:32;;;;;;;6.85;2.75;;;;;;;40.66;38.62;98543.94;5048529;28;20045;-48
2023/07/19 07:25:58;;;;;;;5.05;2.63;;;;;;;39.48;40.21;98546.94;5057048;28;20037;-48
2023/07/19 07:28:23;;;;;;;6.28;2.47;;;;;;;40.39;39.87;98537.97;5045570;28;20123;-48
2023/07/19 07:30:49;;;;;;;6.35;2.78;;;;;;;41.28;38.75;98542.41;5051233;28;20075;-48
2023/07/19 07:33:14;;;;;;;8.85;3.15;;;;;;;39.82;38.23;98544.53;5061819;28;20036;-48
2023/07/19 07:35:39;;;;;;;4.93;2.80;;;;;;;42.08;35.87;98526.31;5060934;28;20030;-48
2023/07/19 07:38:05;;;;;;;5.63;2.70;;;;;;;40.82;37.16;98532.13;5041431;28;20032;-48
2023/07/19 07:40:30;;;;;;;6.97;2.72;;;;;;;40.55;37.19;98535.47;5048668;28;20055;-48
2023/07/19 07:42:56;;;;;;;3.90;2.40;;;;;;;41.77;35.43;98526.22;5048924;28;20484;-47
2023/07/19 07:45:21;;;;;;;5.38;2.42;;;;;;;42.70;34.57;98530.88;5050251;28;20060;-48
2023/07/19 07:47:47;;;;;;;8.43;2.92;;;;;;;41.71;35.10;98527.88;5057610;28;20113;-47
2023/07/19 07:50:13;;;;;;;5.32;2.58;;;;;;;42.68;34.53;98527.66;5042957;28;20115;-48
2023/07/19 07:52:38;;;;;;;5.20;2.75;;;;;;;42.85;34.45;98535.19;5045233;28;20136;-48
2023/07/19 07:55:06;;;;;;;4.22;2.50;;;;;;;42.67;33.86;98523.19;5045370;28;20036;-49
2023/07/19 07:57:37;;;;;;;5.55;2.70;;;;;;;40.80;35.30;98529.72;5050834;28;20032;-48
2023/07/19 08:00:06;;;;;;;5.65;2.63;;;;;;;41.92;32.99;98513.50;5051694;28;20051;-48
2023/07/19 08:02:31;;;;;;;4.47;2.38;;;;;;;42.03;33.26;98524.75;5050540;28;20032;-48
2023/07/19 08:04:57;;;;;;;8.85;2.38;;;;;;;42.71;33.44;98518.28;5060274;28;20033;-49
2023/07/19 08:07:25;;;;;;;3.33;2.10;;;;;;;44.40;31.46;98517.13;5053592;28;20087;-49
2023/07/19 08:09:51;;;;;;;7.50;2.17;;;;;;;43.59;31.13;98519.47;5062538;28;20078;-49
2023/07/19 08:12:16;;;;;;;3.53;2.30;;;;;;;42.07;33.05;98519.03;5044630;28;20426;-49
2023/07/19 08:14:42;;;;;;;4.82;1.90;;;;;;;42.02;30.57;98511.75;5067286;28;20116;-48
2023/07/19 08:17:07;;;;;;;4.03;1.85;;;;;;;43.95;30.22;98519.63;5037939;28;20029;-48
2023/07/19 08:19:32;;;;;;;13.88;2.20;;;;;;;44.84;28.11;98505.63;5053757;28;20029;-49
2023/07/19 08:22:02;;;;;;;4.28;1.70;;;;;;;44.82;26.85;98510.97;5048566;28;20097;-50
2023/07/19 08:24:28;;;;;;;3.58;1.30;;;;;;;44.51;28.21;98516.91;5058237;28;20033;-49
2023/07/19 08:26:53;;;;;;;4.30;1.42;;;;;;;44.83;27.21;98510.56;5044832;28;20090;-49
2023/07/19 08:29:19;;;;;;;4.07;1.50;;;;;;;44.55;26.65;98509.09;5042324;28;20082;-49
2023/07/19 08:31:44;;;;;;;4.68;1.70;;;;;;;44.63;27.18;98510.53;5040648;28;20363;-49
2023/07/19 08:34:10;;;;;;;4.65;1.90;;;;;;;45.36;26.01;98512.59;5054239;28;20067;-49
2023/07/19 08:36:35;;;;;;;5.00;1.67;;;;;;;44.67;26.56;98513.31;5068066;28;20039;-49
2023/07/19 08:39:01;;;;;;;3.90;1.30;;;;;;;45.36;26.23;98509.75;5059795;28;20052;-49
2023/07/19 08:41:29;;;;;;;1.95;1.30;;;;;;;45.79;25.20;98505.81;5049546;28;20043;-49
2023/07/19 08:43:55;;;;;;;2.15;1.20;;;;;;;46.42;24.51;98505.28;5065804;28;20528;-49
2023/07/19 08:46:21;;;;;;;2.10;1.30;;;;;;;47.45;24.26;98502.56;5049111;28;20052;-49
2023/07/19 08:48:47;;;;;;;3.28;1.42;;;;;;;45.89;23.81;98502.66;5051738;28;20052;-49
2023/07/19 08:51:14;;;;;;;1.52;1.30;;;;;;;46.11;23.73;98502.88;5054028;28;20170;-49
2023/07/19 08:53:40;;;;;;;5.63;1.40;;;;;;;46.98;24.07;98493.38;5053775;28;20025;-49
2023/07/19 08:56:05;;;;;;;2.00;1.08;;;;;;;47.53;23.51;98495.31;5052506;28;20040;-49
2023/07/19 08:58:36;;;;;;;1.90;1.10;;;;;;;47.13;23.35;98488.00;5053034;28;20026;-49
2023/07/19 09:01:02;;;;;;;2.22;1.30;;;;;;;46.65;23.54;98483.38;5050722;28;20025;-50
2023/07/19 09:03:27;;;;;;;3.55;1.23;;;;;;;45.16;24.47;98489.81;5057994;28;20046;-49
2023/07/19 09:05:53;;;;;;;1.35;1.00;;;;;;;46.19;23.28;98489.19;5069145;28;20053;-51
2023/07/19 09:08:19;;;;;;;11.43;1.45;;;;;;;46.14;24.05;98486.88;5051924;28;20029;-49
2023/07/19 09:10:46;;;;;;;3.40;1.50;;;;;;;46.78;23.80;98487.06;5045547;28;20066;-49
2023/07/19 09:13:18;;;;;;;2.88;1.20;;;;;;;47.60;23.62;98486.47;5048882;28;20033;-49
2023/07/19 09:15:47;;;;;;;2.47;1.00;;;;;;;48.22;23.22;98480.22;5058749;28;20029;-49
2023/07/19 09:18:12;;;;;;;1.63;0.98;;;;;;;46.78;22.12;98473.56;5057746;28;20472;-49
2023/07/19 09:20:39;;;;;;;3.53;1.08;;;;;;;46.68;22.52;98468.13;5051772;28;20047;-49
2023/07/19 09:23:06;;;;;;;2.58;1.25;;;;;;;47.36;22.17;98478.25;5058085;28;20087;-49
2023/07/19 09:25:33;;;;;;;5.33;1.30;;;;;;;47.97;22.21;98472.50;5049045;28;20469;-49
2023/07/19 09:28:04;;;;;;;4.45;1.40;;;;;;;46.26;22.57;98466.09;5046483;28;20057;-49
2023/07/19 09:30:29;;;;;;;2.45;1.25;;;;;;;47.28;22.19;98467.50;5042228;28;20132;-49
2023/07/19 09:32:59;;;;;;;1.70;1.00;;;;;;;47.49;21.30;98463.91;5039978;28;20108;-50
2023/07/19 09:35:29;;;;;;;2.22;1.15;;;;;;;46.47;21.25;98456.09;5055338;28;20386;-49
2023/07/19 09:37:55;;;;;;;4.80;1.30;;;;;;;45.47;22.93;98456.78;5051724;28;20025;-49
2023/07/19 09:40:21;;;;;;;3.78;1.17;;;;;;;46.86;21.10;98456.94;5048339;28;20031;-49
2023/07/19 09:42:49;;;;;;;2.20;1.20;;;;;;;46.55;21.44;98451.75;5041832;28;20079;-49
2023/07/19 09:45:20;;;;;;;3.58;1.33;;;;;;;47.30;21.62;98457.19;5058095;28;20029;-49
2023/07/19 09:47:46;;;;;;;2.15;0.90;;;;;;;47.04;21.64;98444.13;5058745;28;20045;-49
2023/07/19 09:50:12;;;;;;;2.05;1.15;;;;;;;48.16;21.39;98454.16;5045406;28;20472;-49
2023/07/19 09:52:38;;;;;;;1.48;1.10;;;;;;;48.58;20.76;98447.28;5061013;28;20465;-49
2023/07/19 09:55:05;;;;;;;2.20;1.15;;;;;;;44.03;22.39;98444.16;5046811;28;20071;-49
2023/07/19 09:57:32;;;;;;;1.45;1.05;;;;;;;43.92;23.42;98446.38;5068798;28;20479;-49
2023/07/19 09:59:59;;;;;;;3.42;1.08;;;;;;;45.51;22.11;98433.03;5058329;28;20384;-49
2023/07/19 10:02:24;;;;;;;3.10;1.33;;;;;;;44.19;22.00;98435.66;5055592;28;20025;-49
2023/07/19 10:04:52;;;;;;;3.50;1.55;;;;;;;42.00;23.74;98441.16;5080363;28;20083;-49
2023/07/19 10:07:20;;;;;;;2.50;1.10;;;;;;;43.02;23.23;98436.50;5061016;28;20044;-51
2023/07/19 10:09:49;;;;;;;2.00;1.00;;;;;;;44.69;22.96;98430.13;5035383;28;20056;-49
2023/07/19 10:12:14;;;;;;;1.95;1.10;;;;;;;45.13;22.04;98442.13;5051473;28;20039;-50
2023/07/19 10:14:40;;;;;;;2.00;1.40;;;;;;;46.07;22.19;98436.41;5048601;28;20468;-49
2023/07/19 10:17:06;;;;;;;1.70;1.00;;;;;;;46.15;22.10;98437.00;5040639;28;20057;-49
2023/07/19 10:19:32;;;;;;;3.25;1.20;;;;;;;46.54;21.55;98447.28;5043579;28;20443;-49
2023/07/19 10:22:03;;;;;;;2.25;1.10;;;;;;;45.59;22.39;98445.88;5045758;28;20029;-49
2023/07/19 10:24:29;;;;;;;3.00;1.10;;;;;;;46.70;21.40;98432.09;5056766;28;20440;-49
2023/07/19 10:26:55;;;;;;;1.10;0.98;;;;;;;46.45;21.65;98434.91;5044168;28;20523;-50
2023/07/19 10:29:24;;;;;;;3.03;1.10;;;;;;;46.31;20.69;98422.66;5046442;28;20022;-49
2023/07/19 10:31:50;;;;;;;3.00;0.93;;;;;;;44.51;21.70;98425.63;5046848;28;20044;-49
2023/07/19 10:34:15;;;;;;;2.53;1.20;;;;;;;46.66;21.63;98419.91;5054112;28;20476;-49
2023/07/19 10:36:46;;;;;;;2.95;1.20;;;;;;;47.12;21.15;98426.25;5057342;28;20033;-49
2023/07/19 10:39:12;;;;;;;1.95;0.95;;;;;;;43.92;21.79;98430.06;5039323;28;20033;-50
2023/07/19 10:41:37;;;;;;;2.30;1.10;;;;;;;43.59;23.02;98431.13;5065526;28;20031;-50
2023/07/19 10:44:02;;;;;;;2.95;1.20;;;;;;;43.94;22.86;98426.78;5043055;28;20071;-49
2023/07/19 10:46:29;;;;;;;1.70;1.00;;;;;;;46.05;20.84;98420.97;5028029;28;20554;-50
2023/07/19 10:48:55;;;;;;;1.80;1.10;;;;;;;45.76;20.69;98421.75;5039697;28;20032;-50
2023/07/19 10:51:20;;;;;;;1.30;0.85;;;;;;;45.88;20.83;98415.28;5049624;28;20025;-50
2023/07/19 10:53:47;;;;;;;2.42;1.20;;;;;;;45.77;20.54;98429.06;5053377;28;20045;-50
2023/07/19 10:56:15;;;;;;;3.00;1.00;;;;;;;45.49;21.00;98422.84;5068471;28;20028;-50
2023/07/19 10:58:41;;;;;;;5.82;1.13;;;;;;;46.37;20.91;98419.22;5071427;28;20032;-49
2023/07/19 11:01:06;;;;;;;3.20;1.05;;;;;;;46.19;20.46;98417.66;5044607;28;20037;-50
2023/07/19 11:03:32;;;;;;;3.55;0.80;;;;;;;45.97;20.73;98411.00;5049822;28;20056;-50
2023/07/19 11:05:59;;;;;;;4.97;1.05;;;;;;;44.96;21.76;98399.31;5046047;28;20033;-50
2023/07/19 11:08:29;;;;;;;2.65;0.90;;;;;;;41.53;23.23;98408.75;5046223;28;20063;-49
2023/07/19 11:10:56;;;;;;;1.88;1.10;;;;;;;38.31;26.53;98414.13;5054431;28;20025;-49
2023/07/19 11:13:24;;;;;;;4.13;1.30;;;;;;;38.03;26.61;98414.00;5042233;28;20032;-48
2023/07/19 11:15:54;;;;;;;3.20;1.30;;;;;;;39.68;24.77;98409.41;5073890;28;20333;-49
2023/07/19 11:18:34;;;;;;;2.08;1.50;;;;;;;40.82;24.15;98401.63;5037828;28;21878;-49
2023/07/19 11:21:00;;;;;;;3.13;0.90;;;;;;;43.47;22.84;98404.03;5050767;28;20523;-49